Quincy, WA (98848)

12:35 AM PST on December 10, 2016 (GMT -0800)
SE Quincy | | Change Station

Elev 1280 ft 47.23 °N, 119.84 °W | Updated 10 seconds ago

Overcast
Overcast
21.6 °F
Feels Like 22 °F
N
0.0
Wind Variable Wind from SSE

Today
High -- | Low -- °F
--% Chance of Precip.
Yesterday
High -- | Low -- °F
Precip. -- in
Pressure 29.93 in
Visibility 1.5 miles
Clouds Mostly Cloudy 2500 ft
Overcast 4300 ft
Windchill 22 °F
Dew Point 19 °F
Humidity 90%
Rainfall 0.00 in
Snow Depth Not available.
7:35 AM 4:09 PM
Waxing Gibbous, 81% visible
SPECI KEPH 100819Z AUTO 35006KT 1 1/2SM -SN BKN025 OVC043 M05/M08 A2993 RMK AO2 P0000 T10501083
Pressure 29.93 in
Visibility 1.5 miles
Clouds Mostly Cloudy 2500 ft
Overcast 4300 ft
Windchill 22 °F
Dew Point 19 °F
Humidity 90%
Rainfall 0.00 in
Snow Depth Not available.
7:35 AM 4:09 PM
Waxing Gibbous, 81% visible
SPECI KEPH 100819Z AUTO 35006KT 1 1/2SM -SN BKN025 OVC043 M05/M08 A2993 RMK AO2 P0000 T10501083

10-Day Weather Forecast

Almanac

Astronomy

Dec. 10, 2016 Rise Set
Actual Time
Civil Twilight
Nautical Twilight
Astronomical Twilight
Moon
Length of Visible Light
Length of Day
Tomorrow will be .
, % of the Moon is Illuminated

Today's Extremes

State Highs State Lows

Community

WunderPhotos

Upload Photos

1,956,538 photos uploaded!

WunderBlog® & News

Nearby

Air Quality

  Air Quality AQ Index Pollutant
Not available.

Snow Depth

Station Depth Elevation

Earthquake Activity

City Distance Mag. Time & Date
Minimum magnitude displayed is 2.5.

Coastal Water Temperatures

Place Temperature

Stations

Nearby Weather Stations

Station Location Temp. Windchill Dew Point Humidity Wind Precip. Elev Updated Type
                   

Watches & Warnings

There are currently no watches in effect.